Gainesville Regional Airport
KGNV : now visible

Airfield :











YOU CAN JOIN US ON...

 
LOGIN :

Register | Disclaimer

   EN    FR    IT 

 









Legend :    VFR   Marginal VFR   IFR   Intensive IFR   Very Intensive IFR
Visi :
Ceiling :
>= 8 km
>= 3000ft
5 to 8 km
1000 to 3000 ft
1500m to 5 km
500 to 1000 ft
800 to 1500m
200 to 500 ft
< 800m
< 200 ft
Symbols :   Thunderstorms  Fog  Heavy snow  Heavy precipitations  Wind > 20 kt






- Airport Elevation : 152 ft
- IATA code : GNV


KGNV - Gainesville Regional

CURRENT METAR :
  • 220353Z AUTO 32006KT 10SM CLR 01/M08 A3033 RMK AO2 SLP273 T00111078

EXPIRED METARs :
  • 220253Z 36009KT 10SM CLR 02/M08 A3032 RMK AO2 SLP270 T00221078 50006
  • 220153Z 35005KT 10SM CLR 02/M08 A3033 RMK AO2 SLP272 T00221078

TAF KGNV
Valid from the 22 at 00:00 until the 23 at 00:00 UTC


212340Z 2200/2224 35012KT P6SM SKC
FM220200 34008KT P6SM SKC
FM221600 01011KT P6SM FEW250
FM222000 02008KT P6SM FEW035 BKN250



MET'MAP, your aeronautical weather chart ! - Copyright ORBIFLY December 2007 - Disclaimer

ORBIFLY MET'MAP TEAM :

Programming & Development : Alexandra Zaïnal
Concept & original design : Baudouin d'Aumeries
Assistance for programming : Marc-Olivier Méhu
Technical & hardware support : Manuel Goepfert

Contact : metmap@orbifly.com




SOURCES & CREDITS :

   NOAA       Earth
Advisory